sensor_id;sensor_type;location;lat;lon;timestamp;P1;durP1;ratioP1;P2;durP2;ratioP2
3997;SDS011;61314;53.444;9.902;2023-05-07T00:00:18;25.38;;;15.10;;
3997;SDS011;61314;53.444;9.902;2023-05-07T00:02:45;17.48;;;12.57;;
3997;SDS011;61314;53.444;9.902;2023-05-07T00:05:12;15.15;;;12.70;;
3997;SDS011;61314;53.444;9.902;2023-05-07T00:07:40;18.27;;;13.10;;
3997;SDS011;61314;53.444;9.902;2023-05-07T00:10:07;18.38;;;12.07;;
3997;SDS011;61314;53.444;9.902;2023-05-07T00:12:34;16.27;;;12.18;;
3997;SDS011;61314;53.444;9.902;2023-05-07T00:15:02;16.25;;;12.65;;
3997;SDS011;61314;53.444;9.902;2023-05-07T00:17:29;16.90;;;13.17;;
3997;SDS011;61314;53.444;9.902;2023-05-07T00:19:56;15.18;;;13.05;;
3997;SDS011;61314;53.444;9.902;2023-05-07T00:22:23;17.13;;;13.23;;
3997;SDS011;61314;53.444;9.902;2023-05-07T00:24:49;15.57;;;12.38;;
3997;SDS011;61314;53.444;9.902;2023-05-07T00:27:16;19.50;;;14.13;;
3997;SDS011;61314;53.444;9.902;2023-05-07T00:29:42;14.98;;;12.52;;
3997;SDS011;61314;53.444;9.902;2023-05-07T00:32:09;16.13;;;12.43;;
3997;SDS011;61314;53.444;9.902;2023-05-07T00:34:36;16.63;;;11.65;;
3997;SDS011;61314;53.444;9.902;2023-05-07T00:37:02;16.13;;;12.73;;
3997;SDS011;61314;53.444;9.902;2023-05-07T00:39:31;16.55;;;12.23;;
3997;SDS011;61314;53.444;9.902;2023-05-07T00:41:58;16.65;;;12.70;;
3997;SDS011;61314;53.444;9.902;2023-05-07T00:44:25;15.10;;;12.20;;
3997;SDS011;61314;53.444;9.902;2023-05-07T00:46:52;11.65;;;10.10;;
3997;SDS011;61314;53.444;9.902;2023-05-07T00:49:19;12.95;;;10.80;;
3997;SDS011;61314;53.444;9.902;2023-05-07T00:51:46;11.70;;;10.15;;
3997;SDS011;61314;53.444;9.902;2023-05-07T00:54:13;12.23;;;10.85;;
3997;SDS011;61314;53.444;9.902;2023-05-07T00:56:40;13.65;;;12.05;;
3997;SDS011;61314;53.444;9.902;2023-05-07T00:59:06;15.10;;;10.98;;
3997;SDS011;61314;53.444;9.902;2023-05-07T01:01:34;14.38;;;11.43;;
3997;SDS011;61314;53.444;9.902;2023-05-07T01:04:01;12.65;;;10.43;;
3997;SDS011;61314;53.444;9.902;2023-05-07T01:06:28;13.00;;;11.38;;
3997;SDS011;61314;53.444;9.902;2023-05-07T01:08:57;12.82;;;10.70;;
3997;SDS011;61314;53.444;9.902;2023-05-07T01:11:24;13.82;;;10.57;;
3997;SDS011;61314;53.444;9.902;2023-05-07T01:13:51;14.65;;;11.45;;
3997;SDS011;61314;53.444;9.902;2023-05-07T01:16:19;13.30;;;10.93;;
3997;SDS011;61314;53.444;9.902;2023-05-07T01:18:46;11.68;;;10.43;;
3997;SDS011;61314;53.444;9.902;2023-05-07T01:21:15;13.32;;;10.90;;
3997;SDS011;61314;53.444;9.902;2023-05-07T01:23:44;13.40;;;11.93;;
3997;SDS011;61314;53.444;9.902;2023-05-07T01:26:12;17.40;;;11.70;;
3997;SDS011;61314;53.444;9.902;2023-05-07T01:28:38;14.52;;;11.93;;
3997;SDS011;61314;53.444;9.902;2023-05-07T01:31:05;13.10;;;11.07;;
3997;SDS011;61314;53.444;9.902;2023-05-07T01:33:33;18.65;;;10.85;;
3997;SDS011;61314;53.444;9.902;2023-05-07T01:36:01;12.38;;;11.02;;
3997;SDS011;61314;53.444;9.902;2023-05-07T01:38:32;14.88;;;11.65;;
3997;SDS011;61314;53.444;9.902;2023-05-07T01:40:59;13.55;;;10.55;;
3997;SDS011;61314;53.444;9.902;2023-05-07T01:43:26;12.15;;;10.82;;
3997;SDS011;61314;53.444;9.902;2023-05-07T01:45:52;12.45;;;10.75;;
3997;SDS011;61314;53.444;9.902;2023-05-07T01:48:20;12.35;;;10.20;;
3997;SDS011;61314;53.444;9.902;2023-05-07T01:50:47;12.85;;;10.13;;
3997;SDS011;61314;53.444;9.902;2023-05-07T01:53:14;14.38;;;11.05;;
3997;SDS011;61314;53.444;9.902;2023-05-07T01:55:41;13.07;;;10.38;;
3997;SDS011;61314;53.444;9.902;2023-05-07T01:58:07;10.60;;;9.57;;
3997;SDS011;61314;53.444;9.902;2023-05-07T02:00:34;11.45;;;10.25;;
3997;SDS011;61314;53.444;9.902;2023-05-07T02:03:01;11.65;;;10.05;;
3997;SDS011;61314;53.444;9.902;2023-05-07T02:05:28;11.40;;;10.30;;
3997;SDS011;61314;53.444;9.902;2023-05-07T02:07:54;12.50;;;10.25;;
3997;SDS011;61314;53.444;9.902;2023-05-07T02:10:21;10.70;;;9.60;;
3997;SDS011;61314;53.444;9.902;2023-05-07T02:12:47;11.40;;;10.13;;
3997;SDS011;61314;53.444;9.902;2023-05-07T02:15:14;12.43;;;11.13;;
3997;SDS011;61314;53.444;9.902;2023-05-07T02:18:00;13.48;;;11.15;;
3997;SDS011;61314;53.444;9.902;2023-05-07T02:20:28;11.00;;;9.88;;
3997;SDS011;61314;53.444;9.902;2023-05-07T02:22:54;10.77;;;9.68;;
3997;SDS011;61314;53.444;9.902;2023-05-07T02:25:21;11.30;;;10.20;;
3997;SDS011;61314;53.444;9.902;2023-05-07T02:27:48;13.50;;;10.35;;
3997;SDS011;61314;53.444;9.902;2023-05-07T02:30:14;12.20;;;10.30;;
3997;SDS011;61314;53.444;9.902;2023-05-07T02:32:41;13.45;;;11.02;;
3997;SDS011;61314;53.444;9.902;2023-05-07T02:35:08;13.82;;;11.70;;
3997;SDS011;61314;53.444;9.902;2023-05-07T02:37:36;12.00;;;10.65;;
3997;SDS011;61314;53.444;9.902;2023-05-07T02:40:02;11.50;;;10.35;;
3997;SDS011;61314;53.444;9.902;2023-05-07T02:42:30;12.77;;;11.48;;
3997;SDS011;61314;53.444;9.902;2023-05-07T02:44:57;13.25;;;11.23;;
3997;SDS011;61314;53.444;9.902;2023-05-07T02:47:24;13.43;;;11.63;;
3997;SDS011;61314;53.444;9.902;2023-05-07T02:49:53;17.13;;;13.15;;
3997;SDS011;61314;53.444;9.902;2023-05-07T02:52:20;13.40;;;11.95;;
3997;SDS011;61314;53.444;9.902;2023-05-07T02:54:48;14.93;;;10.85;;
3997;SDS011;61314;53.444;9.902;2023-05-07T02:57:14;14.65;;;11.90;;
3997;SDS011;61314;53.444;9.902;2023-05-07T02:59:41;13.10;;;11.80;;
3997;SDS011;61314;53.444;9.902;2023-05-07T03:02:09;13.55;;;12.15;;
3997;SDS011;61314;53.444;9.902;2023-05-07T03:04:36;13.00;;;11.40;;
3997;SDS011;61314;53.444;9.902;2023-05-07T03:07:03;11.75;;;10.55;;
3997;SDS011;61314;53.444;9.902;2023-05-07T03:09:29;12.57;;;11.27;;
3997;SDS011;61314;53.444;9.902;2023-05-07T03:11:56;13.85;;;12.30;;
3997;SDS011;61314;53.444;9.902;2023-05-07T03:14:23;14.18;;;10.90;;
3997;SDS011;61314;53.444;9.902;2023-05-07T03:16:50;14.90;;;12.30;;
3997;SDS011;61314;53.444;9.902;2023-05-07T03:19:17;16.52;;;12.65;;
3997;SDS011;61314;53.444;9.902;2023-05-07T03:21:43;13.70;;;12.30;;
3997;SDS011;61314;53.444;9.902;2023-05-07T03:24:10;13.48;;;12.10;;
3997;SDS011;61314;53.444;9.902;2023-05-07T03:26:37;16.23;;;12.57;;
3997;SDS011;61314;53.444;9.902;2023-05-07T03:29:03;14.43;;;12.35;;
3997;SDS011;61314;53.444;9.902;2023-05-07T03:31:30;14.10;;;12.60;;
3997;SDS011;61314;53.444;9.902;2023-05-07T03:33:57;13.38;;;11.95;;
3997;SDS011;61314;53.444;9.902;2023-05-07T03:36:23;14.48;;;12.50;;
3997;SDS011;61314;53.444;9.902;2023-05-07T03:38:52;14.20;;;12.50;;
3997;SDS011;61314;53.444;9.902;2023-05-07T03:41:19;14.30;;;12.75;;
3997;SDS011;61314;53.444;9.902;2023-05-07T03:43:46;16.55;;;12.82;;
3997;SDS011;61314;53.444;9.902;2023-05-07T03:46:13;19.20;;;13.45;;
3997;SDS011;61314;53.444;9.902;2023-05-07T03:48:39;14.10;;;12.60;;
3997;SDS011;61314;53.444;9.902;2023-05-07T03:51:06;21.02;;;12.98;;
3997;SDS011;61314;53.444;9.902;2023-05-07T03:53:32;20.38;;;14.52;;
3997;SDS011;61314;53.444;9.902;2023-05-07T03:55:59;14.65;;;13.05;;
3997;SDS011;61314;53.444;9.902;2023-05-07T03:58:26;17.65;;;12.80;;
3997;SDS011;61314;53.444;9.902;2023-05-07T04:00:53;18.00;;;12.50;;
3997;SDS011;61314;53.444;9.902;2023-05-07T04:03:19;15.60;;;11.93;;
3997;SDS011;61314;53.444;9.902;2023-05-07T04:05:46;16.55;;;13.75;;
3997;SDS011;61314;53.444;9.902;2023-05-07T04:08:13;17.25;;;13.52;;
3997;SDS011;61314;53.444;9.902;2023-05-07T04:10:39;15.07;;;11.95;;
3997;SDS011;61314;53.444;9.902;2023-05-07T04:13:06;15.93;;;13.65;;
3997;SDS011;61314;53.444;9.902;2023-05-07T04:15:32;14.15;;;12.50;;
3997;SDS011;61314;53.444;9.902;2023-05-07T04:17:59;14.82;;;12.98;;
3997;SDS011;61314;53.444;9.902;2023-05-07T04:20:26;13.60;;;12.20;;
3997;SDS011;61314;53.444;9.902;2023-05-07T04:22:53;16.92;;;14.10;;
3997;SDS011;61314;53.444;9.902;2023-05-07T04:25:19;17.20;;;13.65;;
3997;SDS011;61314;53.444;9.902;2023-05-07T04:27:46;17.27;;;14.13;;
3997;SDS011;61314;53.444;9.902;2023-05-07T04:30:13;16.40;;;13.57;;
3997;SDS011;61314;53.444;9.902;2023-05-07T04:32:40;18.35;;;13.85;;
3997;SDS011;61314;53.444;9.902;2023-05-07T04:35:06;20.05;;;12.95;;
3997;SDS011;61314;53.444;9.902;2023-05-07T04:37:33;17.50;;;13.98;;
3997;SDS011;61314;53.444;9.902;2023-05-07T04:40:01;15.65;;;12.98;;
3997;SDS011;61314;53.444;9.902;2023-05-07T04:42:29;16.42;;;12.73;;
3997;SDS011;61314;53.444;9.902;2023-05-07T04:44:56;14.57;;;12.25;;
3997;SDS011;61314;53.444;9.902;2023-05-07T04:47:22;16.33;;;12.52;;
3997;SDS011;61314;53.444;9.902;2023-05-07T04:49:49;16.27;;;12.90;;
3997;SDS011;61314;53.444;9.902;2023-05-07T04:52:16;15.82;;;14.10;;
3997;SDS011;61314;53.444;9.902;2023-05-07T04:54:42;15.85;;;12.95;;
3997;SDS011;61314;53.444;9.902;2023-05-07T04:57:09;17.10;;;12.65;;
3997;SDS011;61314;53.444;9.902;2023-05-07T04:59:35;15.93;;;13.38;;
3997;SDS011;61314;53.444;9.902;2023-05-07T05:02:02;14.95;;;12.27;;
3997;SDS011;61314;53.444;9.902;2023-05-07T05:04:30;16.67;;;13.55;;
3997;SDS011;61314;53.444;9.902;2023-05-07T05:06:57;18.25;;;12.95;;
3997;SDS011;61314;53.444;9.902;2023-05-07T05:09:24;20.50;;;12.90;;
3997;SDS011;61314;53.444;9.902;2023-05-07T05:11:51;17.05;;;13.13;;
3997;SDS011;61314;53.444;9.902;2023-05-07T05:14:17;17.50;;;13.77;;
3997;SDS011;61314;53.444;9.902;2023-05-07T05:16:44;20.25;;;13.60;;
3997;SDS011;61314;53.444;9.902;2023-05-07T05:19:10;18.25;;;14.25;;
3997;SDS011;61314;53.444;9.902;2023-05-07T05:21:37;17.67;;;13.98;;
3997;SDS011;61314;53.444;9.902;2023-05-07T05:24:03;17.65;;;13.75;;
3997;SDS011;61314;53.444;9.902;2023-05-07T05:26:30;15.23;;;12.73;;
3997;SDS011;61314;53.444;9.902;2023-05-07T05:28:57;15.30;;;12.65;;
3997;SDS011;61314;53.444;9.902;2023-05-07T05:31:23;17.20;;;12.65;;
3997;SDS011;61314;53.444;9.902;2023-05-07T05:33:50;16.58;;;12.85;;
3997;SDS011;61314;53.444;9.902;2023-05-07T05:36:17;24.45;;;14.43;;
3997;SDS011;61314;53.444;9.902;2023-05-07T05:38:44;18.73;;;14.55;;
3997;SDS011;61314;53.444;9.902;2023-05-07T05:41:10;18.85;;;13.40;;
3997;SDS011;61314;53.444;9.902;2023-05-07T05:43:37;20.13;;;14.60;;
3997;SDS011;61314;53.444;9.902;2023-05-07T05:46:03;18.02;;;13.05;;
3997;SDS011;61314;53.444;9.902;2023-05-07T05:48:30;17.27;;;12.80;;
3997;SDS011;61314;53.444;9.902;2023-05-07T05:50:57;15.65;;;12.70;;
3997;SDS011;61314;53.444;9.902;2023-05-07T05:53:24;16.80;;;13.13;;
3997;SDS011;61314;53.444;9.902;2023-05-07T05:55:50;17.55;;;13.07;;
3997;SDS011;61314;53.444;9.902;2023-05-07T05:58:17;15.27;;;13.15;;
3997;SDS011;61314;53.444;9.902;2023-05-07T06:00:44;17.20;;;12.90;;
3997;SDS011;61314;53.444;9.902;2023-05-07T06:03:11;17.40;;;12.80;;
3997;SDS011;61314;53.444;9.902;2023-05-07T06:05:39;16.95;;;13.73;;
3997;SDS011;61314;53.444;9.902;2023-05-07T06:08:06;22.00;;;12.87;;
3997;SDS011;61314;53.444;9.902;2023-05-07T06:10:32;20.52;;;13.77;;
3997;SDS011;61314;53.444;9.902;2023-05-07T06:12:59;13.30;;;11.88;;
3997;SDS011;61314;53.444;9.902;2023-05-07T06:15:26;13.70;;;11.80;;
3997;SDS011;61314;53.444;9.902;2023-05-07T06:17:52;16.25;;;12.43;;
3997;SDS011;61314;53.444;9.902;2023-05-07T06:20:19;16.80;;;13.60;;
3997;SDS011;61314;53.444;9.902;2023-05-07T06:22:45;14.70;;;11.20;;
3997;SDS011;61314;53.444;9.902;2023-05-07T06:25:12;16.23;;;13.63;;
3997;SDS011;61314;53.444;9.902;2023-05-07T06:27:39;14.50;;;12.43;;
3997;SDS011;61314;53.444;9.902;2023-05-07T06:30:06;16.50;;;11.73;;
3997;SDS011;61314;53.444;9.902;2023-05-07T06:32:33;12.03;;;10.40;;
3997;SDS011;61314;53.444;9.902;2023-05-07T06:35:00;15.83;;;12.17;;
3997;SDS011;61314;53.444;9.902;2023-05-07T06:37:27;16.65;;;12.32;;
3997;SDS011;61314;53.444;9.902;2023-05-07T06:39:53;13.90;;;11.38;;
3997;SDS011;61314;53.444;9.902;2023-05-07T06:42:20;16.13;;;12.02;;
3997;SDS011;61314;53.444;9.902;2023-05-07T06:44:47;12.30;;;10.57;;
3997;SDS011;61314;53.444;9.902;2023-05-07T06:47:13;17.10;;;11.20;;
3997;SDS011;61314;53.444;9.902;2023-05-07T06:49:41;14.83;;;11.73;;
3997;SDS011;61314;53.444;9.902;2023-05-07T06:52:08;14.07;;;12.15;;
3997;SDS011;61314;53.444;9.902;2023-05-07T06:54:35;15.10;;;11.20;;
3997;SDS011;61314;53.444;9.902;2023-05-07T06:57:01;13.70;;;11.50;;
3997;SDS011;61314;53.444;9.902;2023-05-07T06:59:28;12.97;;;10.30;;
3997;SDS011;61314;53.444;9.902;2023-05-07T07:01:54;12.10;;;10.50;;
3997;SDS011;61314;53.444;9.902;2023-05-07T07:04:21;14.33;;;10.93;;
3997;SDS011;61314;53.444;9.902;2023-05-07T07:06:49;13.07;;;11.27;;
3997;SDS011;61314;53.444;9.902;2023-05-07T07:09:17;12.60;;;11.32;;
3997;SDS011;61314;53.444;9.902;2023-05-07T07:11:44;12.17;;;9.73;;
3997;SDS011;61314;53.444;9.902;2023-05-07T07:14:10;12.30;;;10.30;;
3997;SDS011;61314;53.444;9.902;2023-05-07T07:16:37;13.77;;;10.60;;
3997;SDS011;61314;53.444;9.902;2023-05-07T07:19:04;13.20;;;10.77;;
3997;SDS011;61314;53.444;9.902;2023-05-07T07:21:30;13.87;;;10.73;;
3997;SDS011;61314;53.444;9.902;2023-05-07T07:23:57;16.00;;;11.07;;
3997;SDS011;61314;53.444;9.902;2023-05-07T07:26:24;14.32;;;10.90;;
3997;SDS011;61314;53.444;9.902;2023-05-07T07:28:51;12.00;;;10.55;;
3997;SDS011;61314;53.444;9.902;2023-05-07T07:31:17;15.27;;;11.13;;
3997;SDS011;61314;53.444;9.902;2023-05-07T07:33:44;13.27;;;10.80;;
3997;SDS011;61314;53.444;9.902;2023-05-07T07:36:10;16.30;;;11.40;;
3997;SDS011;61314;53.444;9.902;2023-05-07T07:38:37;13.53;;;10.67;;
3997;SDS011;61314;53.444;9.902;2023-05-07T07:41:03;15.07;;;10.25;;
3997;SDS011;61314;53.444;9.902;2023-05-07T07:43:30;10.37;;;9.37;;
3997;SDS011;61314;53.444;9.902;2023-05-07T07:45:57;9.97;;;8.83;;
3997;SDS011;61314;53.444;9.902;2023-05-07T07:48:23;12.97;;;9.90;;
3997;SDS011;61314;53.444;9.902;2023-05-07T07:50:50;10.60;;;8.43;;
3997;SDS011;61314;53.444;9.902;2023-05-07T07:53:20;10.65;;;9.50;;
3997;SDS011;61314;53.444;9.902;2023-05-07T07:55:46;16.50;;;10.93;;
3997;SDS011;61314;53.444;9.902;2023-05-07T07:58:13;11.30;;;10.20;;
3997;SDS011;61314;53.444;9.902;2023-05-07T08:00:39;9.87;;;8.87;;
3997;SDS011;61314;53.444;9.902;2023-05-07T08:03:08;11.18;;;9.23;;
3997;SDS011;61314;53.444;9.902;2023-05-07T08:05:36;9.00;;;8.18;;
3997;SDS011;61314;53.444;9.902;2023-05-07T08:08:04;9.93;;;8.83;;
3997;SDS011;61314;53.444;9.902;2023-05-07T08:10:32;10.60;;;8.53;;
3997;SDS011;61314;53.444;9.902;2023-05-07T08:13:00;10.53;;;9.50;;
3997;SDS011;61314;53.444;9.902;2023-05-07T08:15:28;10.65;;;9.60;;
3997;SDS011;61314;53.444;9.902;2023-05-07T08:17:54;9.20;;;8.27;;
3997;SDS011;61314;53.444;9.902;2023-05-07T08:20:23;12.73;;;8.80;;
3997;SDS011;61314;53.444;9.902;2023-05-07T08:22:50;10.48;;;8.85;;
3997;SDS011;61314;53.444;9.902;2023-05-07T08:25:17;9.40;;;8.43;;
3997;SDS011;61314;53.444;9.902;2023-05-07T08:27:44;10.88;;;8.85;;
3997;SDS011;61314;53.444;9.902;2023-05-07T08:30:11;11.30;;;7.70;;
3997;SDS011;61314;53.444;9.902;2023-05-07T08:32:38;9.77;;;8.77;;
3997;SDS011;61314;53.444;9.902;2023-05-07T08:35:05;9.40;;;8.37;;
3997;SDS011;61314;53.444;9.902;2023-05-07T08:37:32;11.47;;;8.77;;
3997;SDS011;61314;53.444;9.902;2023-05-07T08:39:58;8.67;;;7.70;;
3997;SDS011;61314;53.444;9.902;2023-05-07T08:42:25;9.60;;;7.80;;
3997;SDS011;61314;53.444;9.902;2023-05-07T08:44:54;8.53;;;7.73;;
3997;SDS011;61314;53.444;9.902;2023-05-07T08:47:23;10.83;;;7.90;;
3997;SDS011;61314;53.444;9.902;2023-05-07T08:49:53;11.10;;;7.67;;
3997;SDS011;61314;53.444;9.902;2023-05-07T08:52:20;7.67;;;6.93;;
3997;SDS011;61314;53.444;9.902;2023-05-07T08:54:47;8.87;;;8.07;;
3997;SDS011;61314;53.444;9.902;2023-05-07T08:57:13;8.43;;;7.60;;
3997;SDS011;61314;53.444;9.902;2023-05-07T08:59:40;7.80;;;7.20;;
3997;SDS011;61314;53.444;9.902;2023-05-07T09:02:08;11.00;;;7.47;;
3997;SDS011;61314;53.444;9.902;2023-05-07T09:04:36;9.60;;;6.60;;
3997;SDS011;61314;53.444;9.902;2023-05-07T09:07:03;8.30;;;7.30;;
3997;SDS011;61314;53.444;9.902;2023-05-07T09:09:32;10.40;;;7.37;;
3997;SDS011;61314;53.444;9.902;2023-05-07T09:11:59;8.23;;;7.43;;
3997;SDS011;61314;53.444;9.902;2023-05-07T09:14:26;10.07;;;7.40;;
3997;SDS011;61314;53.444;9.902;2023-05-07T09:16:53;9.80;;;8.10;;
3997;SDS011;61314;53.444;9.902;2023-05-07T09:19:23;8.57;;;7.63;;
3997;SDS011;61314;53.444;9.902;2023-05-07T09:21:57;7.60;;;6.93;;
3997;SDS011;61314;53.444;9.902;2023-05-07T09:24:26;8.37;;;7.47;;
3997;SDS011;61314;53.444;9.902;2023-05-07T09:26:54;8.73;;;7.87;;
3997;SDS011;61314;53.444;9.902;2023-05-07T09:29:23;9.80;;;7.77;;
3997;SDS011;61314;53.444;9.902;2023-05-07T09:31:51;8.93;;;8.13;;
3997;SDS011;61314;53.444;9.902;2023-05-07T09:34:17;11.57;;;7.70;;
3997;SDS011;61314;53.444;9.902;2023-05-07T09:36:44;9.50;;;8.27;;
3997;SDS011;61314;53.444;9.902;2023-05-07T09:39:10;9.27;;;7.77;;
3997;SDS011;61314;53.444;9.902;2023-05-07T09:41:44;10.43;;;8.20;;
3997;SDS011;61314;53.444;9.902;2023-05-07T09:44:12;12.30;;;8.00;;
3997;SDS011;61314;53.444;9.902;2023-05-07T09:46:41;9.90;;;8.60;;
3997;SDS011;61314;53.444;9.902;2023-05-07T09:49:11;9.00;;;7.40;;
3997;SDS011;61314;53.444;9.902;2023-05-07T09:51:51;11.10;;;7.70;;
3997;SDS011;61314;53.444;9.902;2023-05-07T09:54:18;8.40;;;7.60;;
3997;SDS011;61314;53.444;9.902;2023-05-07T09:56:46;10.63;;;7.90;;
3997;SDS011;61314;53.444;9.902;2023-05-07T09:59:15;8.83;;;7.53;;
3997;SDS011;61314;53.444;9.902;2023-05-07T10:01:43;8.33;;;7.43;;
3997;SDS011;61314;53.444;9.902;2023-05-07T10:04:10;8.40;;;7.70;;
3997;SDS011;61314;53.444;9.902;2023-05-07T10:06:38;10.63;;;9.53;;
3997;SDS011;61314;53.444;9.902;2023-05-07T10:09:05;9.97;;;7.83;;
3997;SDS011;61314;53.444;9.902;2023-05-07T10:11:32;9.67;;;7.70;;
3997;SDS011;61314;53.444;9.902;2023-05-07T10:14:00;10.00;;;9.03;;
3997;SDS011;61314;53.444;9.902;2023-05-07T10:16:30;8.57;;;7.87;;
3997;SDS011;61314;53.444;9.902;2023-05-07T10:18:58;11.93;;;8.03;;
3997;SDS011;61314;53.444;9.902;2023-05-07T10:21:27;9.53;;;8.70;;
3997;SDS011;61314;53.444;9.902;2023-05-07T10:24:16;10.23;;;9.13;;
3997;SDS011;61314;53.444;9.902;2023-05-07T10:26:47;8.57;;;7.77;;
3997;SDS011;61314;53.444;9.902;2023-05-07T10:29:18;12.80;;;8.80;;
3997;SDS011;61314;53.444;9.902;2023-05-07T10:34:36;12.63;;;8.07;;
3997;SDS011;61314;53.444;9.902;2023-05-07T10:37:04;10.73;;;8.90;;
3997;SDS011;61314;53.444;9.902;2023-05-07T10:39:31;9.90;;;8.90;;
3997;SDS011;61314;53.444;9.902;2023-05-07T10:42:07;8.90;;;8.00;;
3997;SDS011;61314;53.444;9.902;2023-05-07T10:44:37;8.50;;;7.70;;
3997;SDS011;61314;53.444;9.902;2023-05-07T10:49:36;7.97;;;7.30;;
3997;SDS011;61314;53.444;9.902;2023-05-07T10:52:19;10.93;;;9.83;;
3997;SDS011;61314;53.444;9.902;2023-05-07T10:54:47;10.30;;;9.20;;
3997;SDS011;61314;53.444;9.902;2023-05-07T10:57:36;10.03;;;9.03;;
3997;SDS011;61314;53.444;9.902;2023-05-07T11:00:03;11.60;;;9.03;;
3997;SDS011;61314;53.444;9.902;2023-05-07T11:03:04;9.23;;;8.37;;
3997;SDS011;61314;53.444;9.902;2023-05-07T11:05:34;11.63;;;9.57;;
3997;SDS011;61314;53.444;9.902;2023-05-07T11:08:04;10.50;;;8.90;;
3997;SDS011;61314;53.444;9.902;2023-05-07T11:10:47;9.20;;;8.30;;
3997;SDS011;61314;53.444;9.902;2023-05-07T11:13:15;10.83;;;9.67;;
3997;SDS011;61314;53.444;9.902;2023-05-07T11:15:46;10.13;;;9.00;;
3997;SDS011;61314;53.444;9.902;2023-05-07T11:18:15;9.83;;;8.93;;
3997;SDS011;61314;53.444;9.902;2023-05-07T11:20:55;11.67;;;8.27;;
3997;SDS011;61314;53.444;9.902;2023-05-07T11:26:02;9.30;;;8.30;;
3997;SDS011;61314;53.444;9.902;2023-05-07T11:28:39;8.27;;;7.57;;
3997;SDS011;61314;53.444;9.902;2023-05-07T11:31:09;9.20;;;8.30;;
3997;SDS011;61314;53.444;9.902;2023-05-07T11:33:40;9.00;;;8.10;;
3997;SDS011;61314;53.444;9.902;2023-05-07T11:36:07;9.27;;;8.40;;
3997;SDS011;61314;53.444;9.902;2023-05-07T11:38:35;9.83;;;7.57;;
3997;SDS011;61314;53.444;9.902;2023-05-07T11:41:03;8.93;;;7.37;;
3997;SDS011;61314;53.444;9.902;2023-05-07T11:43:33;10.50;;;7.50;;
3997;SDS011;61314;53.444;9.902;2023-05-07T11:46:07;7.77;;;7.00;;
3997;SDS011;61314;53.444;9.902;2023-05-07T11:48:37;7.40;;;6.77;;
3997;SDS011;61314;53.444;9.902;2023-05-07T11:51:05;9.10;;;6.10;;
3997;SDS011;61314;53.444;9.902;2023-05-07T11:53:40;7.40;;;6.70;;
3997;SDS011;61314;53.444;9.902;2023-05-07T11:56:14;6.90;;;6.30;;
3997;SDS011;61314;53.444;9.902;2023-05-07T11:58:43;7.73;;;6.43;;
3997;SDS011;61314;53.444;9.902;2023-05-07T12:01:13;7.63;;;6.93;;
3997;SDS011;61314;53.444;9.902;2023-05-07T12:03:43;8.20;;;6.23;;
3997;SDS011;61314;53.444;9.902;2023-05-07T12:06:13;6.93;;;6.37;;
3997;SDS011;61314;53.444;9.902;2023-05-07T12:08:47;7.97;;;7.27;;
3997;SDS011;61314;53.444;9.902;2023-05-07T12:11:18;6.67;;;6.10;;
3997;SDS011;61314;53.444;9.902;2023-05-07T12:13:49;7.03;;;6.40;;
3997;SDS011;61314;53.444;9.902;2023-05-07T12:16:16;6.80;;;6.13;;
3997;SDS011;61314;53.444;9.902;2023-05-07T12:18:44;7.60;;;6.90;;
3997;SDS011;61314;53.444;9.902;2023-05-07T12:21:11;9.70;;;6.20;;
3997;SDS011;61314;53.444;9.902;2023-05-07T12:23:38;7.60;;;6.10;;
3997;SDS011;61314;53.444;9.902;2023-05-07T12:26:06;7.73;;;6.63;;
3997;SDS011;61314;53.444;9.902;2023-05-07T12:28:36;6.50;;;5.80;;
3997;SDS011;61314;53.444;9.902;2023-05-07T12:31:05;7.90;;;5.80;;
3997;SDS011;61314;53.444;9.902;2023-05-07T12:33:32;6.97;;;6.30;;
3997;SDS011;61314;53.444;9.902;2023-05-07T12:36:02;5.50;;;5.10;;
3997;SDS011;61314;53.444;9.902;2023-05-07T12:38:33;6.70;;;5.63;;
3997;SDS011;61314;53.444;9.902;2023-05-07T12:41:03;5.67;;;5.27;;
3997;SDS011;61314;53.444;9.902;2023-05-07T12:43:30;9.67;;;6.43;;
3997;SDS011;61314;53.444;9.902;2023-05-07T12:45:59;5.83;;;5.33;;
3997;SDS011;61314;53.444;9.902;2023-05-07T12:48:27;5.50;;;5.00;;
3997;SDS011;61314;53.444;9.902;2023-05-07T12:50:54;5.93;;;5.43;;
3997;SDS011;61314;53.444;9.902;2023-05-07T12:53:22;6.27;;;5.67;;
3997;SDS011;61314;53.444;9.902;2023-05-07T12:55:53;5.10;;;4.70;;
3997;SDS011;61314;53.444;9.902;2023-05-07T12:58:22;5.80;;;5.27;;
3997;SDS011;61314;53.444;9.902;2023-05-07T13:00:50;8.10;;;5.40;;
3997;SDS011;61314;53.444;9.902;2023-05-07T13:03:21;5.87;;;5.47;;
3997;SDS011;61314;53.444;9.902;2023-05-07T13:05:49;5.33;;;4.83;;
3997;SDS011;61314;53.444;9.902;2023-05-07T13:08:23;5.80;;;5.30;;
3997;SDS011;61314;53.444;9.902;2023-05-07T13:10:50;5.43;;;5.00;;
3997;SDS011;61314;53.444;9.902;2023-05-07T13:13:17;5.57;;;4.97;;
3997;SDS011;61314;53.444;9.902;2023-05-07T13:15:44;5.00;;;4.63;;
3997;SDS011;61314;53.444;9.902;2023-05-07T13:18:11;5.17;;;4.77;;
3997;SDS011;61314;53.444;9.902;2023-05-07T13:20:38;4.50;;;4.20;;
3997;SDS011;61314;53.444;9.902;2023-05-07T13:23:05;4.23;;;3.90;;
3997;SDS011;61314;53.444;9.902;2023-05-07T13:25:32;4.73;;;3.97;;
3997;SDS011;61314;53.444;9.902;2023-05-07T13:28:01;5.37;;;4.10;;
3997;SDS011;61314;53.444;9.902;2023-05-07T13:30:36;4.10;;;3.60;;
3997;SDS011;61314;53.444;9.902;2023-05-07T13:33:03;4.20;;;3.80;;
3997;SDS011;61314;53.444;9.902;2023-05-07T13:35:31;6.63;;;4.13;;
3997;SDS011;61314;53.444;9.902;2023-05-07T13:37:58;5.10;;;4.60;;
3997;SDS011;61314;53.444;9.902;2023-05-07T13:40:25;3.80;;;3.50;;
3997;SDS011;61314;53.444;9.902;2023-05-07T13:42:52;3.87;;;3.67;;
3997;SDS011;61314;53.444;9.902;2023-05-07T13:45:19;4.17;;;3.80;;
3997;SDS011;61314;53.444;9.902;2023-05-07T13:47:46;4.40;;;4.00;;
3997;SDS011;61314;53.444;9.902;2023-05-07T13:50:15;4.07;;;3.67;;
3997;SDS011;61314;53.444;9.902;2023-05-07T13:52:43;4.60;;;4.00;;
3997;SDS011;61314;53.444;9.902;2023-05-07T13:55:17;4.00;;;3.70;;
3997;SDS011;61314;53.444;9.902;2023-05-07T13:57:44;3.87;;;3.67;;
3997;SDS011;61314;53.444;9.902;2023-05-07T14:00:12;4.87;;;3.47;;
3997;SDS011;61314;53.444;9.902;2023-05-07T14:02:40;9.93;;;3.90;;
3997;SDS011;61314;53.444;9.902;2023-05-07T14:05:07;4.50;;;3.57;;
3997;SDS011;61314;53.444;9.902;2023-05-07T14:07:35;4.97;;;4.20;;
3997;SDS011;61314;53.444;9.902;2023-05-07T14:10:02;4.93;;;4.40;;
3997;SDS011;61314;53.444;9.902;2023-05-07T14:12:29;3.43;;;3.23;;
3997;SDS011;61314;53.444;9.902;2023-05-07T14:14:56;3.30;;;3.10;;
3997;SDS011;61314;53.444;9.902;2023-05-07T14:17:23;3.87;;;3.67;;
3997;SDS011;61314;53.444;9.902;2023-05-07T14:19:53;3.43;;;3.13;;
3997;SDS011;61314;53.444;9.902;2023-05-07T14:22:20;3.37;;;3.17;;
3997;SDS011;61314;53.444;9.902;2023-05-07T14:24:49;3.63;;;3.43;;
3997;SDS011;61314;53.444;9.902;2023-05-07T14:27:31;3.10;;;2.90;;
3997;SDS011;61314;53.444;9.902;2023-05-07T14:29:58;3.63;;;3.40;;
3997;SDS011;61314;53.444;9.902;2023-05-07T14:32:25;2.60;;;2.40;;
3997;SDS011;61314;53.444;9.902;2023-05-07T14:34:52;2.90;;;2.70;;
3997;SDS011;61314;53.444;9.902;2023-05-07T14:37:19;3.23;;;2.93;;
3997;SDS011;61314;53.444;9.902;2023-05-07T14:39:46;2.70;;;2.50;;
3997;SDS011;61314;53.444;9.902;2023-05-07T14:42:16;2.93;;;2.73;;
3997;SDS011;61314;53.444;9.902;2023-05-07T14:44:43;2.43;;;2.33;;
3997;SDS011;61314;53.444;9.902;2023-05-07T14:47:11;3.03;;;2.80;;
3997;SDS011;61314;53.444;9.902;2023-05-07T14:49:38;2.70;;;2.50;;
3997;SDS011;61314;53.444;9.902;2023-05-07T14:52:05;2.80;;;2.60;;
3997;SDS011;61314;53.444;9.902;2023-05-07T14:54:33;3.20;;;2.90;;
3997;SDS011;61314;53.444;9.902;2023-05-07T14:57:04;3.00;;;2.67;;